createdAt,value
2022-11-26T00:03:09.421Z,41.90
2022-11-26T00:05:41.980Z,38.53
2022-11-26T00:08:47.845Z,39.28
2022-11-26T00:11:17.322Z,39.75
2022-11-26T00:13:50.854Z,44.08
2022-11-26T00:19:06.569Z,55.97
2022-11-26T00:21:41.928Z,54.67
2022-11-26T00:24:28.568Z,53.10
2022-11-26T00:27:01.422Z,53.95
2022-11-26T00:29:31.485Z,55.78
2022-11-26T00:32:22.904Z,55.20
2022-11-26T00:34:58.670Z,53.28
2022-11-26T00:37:33.902Z,50.08
2022-11-26T00:40:08.680Z,51.72
2022-11-26T00:45:28.310Z,55.22
2022-11-26T00:48:01.146Z,50.63
2022-11-26T00:50:46.862Z,41.83
2022-11-26T00:53:21.845Z,36.60
2022-11-26T00:55:55.715Z,37.22
2022-11-26T00:58:30.689Z,36.47
2022-11-26T01:01:03.556Z,35.65
2022-11-26T01:03:35.979Z,32.33
2022-11-26T01:06:07.963Z,31.48
2022-11-26T01:08:40.592Z,37.47
2022-11-26T01:11:20.074Z,38.17
2022-11-26T01:13:54.941Z,34.03
2022-11-26T01:16:29.935Z,33.13
2022-11-26T01:19:02.823Z,35.03
2022-11-26T01:21:34.285Z,35.08
2022-11-26T01:24:04.832Z,32.67
2022-11-26T01:26:46.312Z,32.90
2022-11-26T01:29:20.702Z,31.40
2022-11-26T01:31:48.157Z,33.55
2022-11-26T01:34:17.858Z,32.55
2022-11-26T01:36:49.940Z,29.92
2022-11-26T01:39:22.067Z,32.28
2022-11-26T01:42:26.368Z,30.17
2022-11-26T01:44:54.871Z,31.50
2022-11-26T01:47:28.629Z,35.42
2022-11-26T01:50:30.982Z,37.20
2022-11-26T01:53:39.210Z,34.70
2022-11-26T01:56:35.861Z,32.95
2022-11-26T01:59:31.525Z,33.10
2022-11-26T02:02:01.881Z,34.90
2022-11-26T02:05:17.011Z,33.33
2022-11-26T02:07:49.541Z,33.75
2022-11-26T02:10:20.457Z,34.17
2022-11-26T02:12:50.486Z,33.50
2022-11-26T02:15:20.429Z,32.83
2022-11-26T02:18:18.472Z,32.67
2022-11-26T02:21:20.986Z,36.58
2022-11-26T02:24:25.619Z,35.92
2022-11-26T02:26:56.259Z,33.47
2022-11-26T02:29:53.737Z,32.40
2022-11-26T02:32:35.268Z,31.05
2022-11-26T02:35:23.368Z,32.75
2022-11-26T02:38:11.118Z,32.10
2022-11-26T02:40:45.837Z,31.63
2022-11-26T02:43:19.168Z,29.70
2022-11-26T02:45:57.962Z,30.48
2022-11-26T02:48:56.641Z,29.80
2022-11-26T02:51:50.795Z,30.63
2022-11-26T02:54:24.490Z,32.45
2022-11-26T02:56:55.633Z,31.55
2022-11-26T02:59:23.520Z,30.73
2022-11-26T03:02:08.103Z,31.95
2022-11-26T03:04:43.433Z,33.10
2022-11-26T03:07:27.439Z,31.52
2022-11-26T03:10:04.326Z,33.40
2022-11-26T03:12:32.958Z,34.88
2022-11-26T03:15:01.935Z,34.25
2022-11-26T03:17:36.592Z,33.80
2022-11-26T03:20:05.724Z,32.10
2022-11-26T03:22:35.941Z,32.65
2022-11-26T03:25:10.629Z,32.20
2022-11-26T03:27:41.251Z,33.20
2022-11-26T03:30:15.748Z,33.30
2022-11-26T03:32:43.838Z,33.03
2022-11-26T03:35:20.522Z,32.53
2022-11-26T03:37:51.354Z,32.17
2022-11-26T03:40:20.397Z,33.90
2022-11-26T03:42:50.678Z,35.58
2022-11-26T03:45:20.243Z,39.25
2022-11-26T03:47:51.628Z,47.05
2022-11-26T03:50:20.027Z,40.00
2022-11-26T03:52:51.260Z,38.47
2022-11-26T03:55:22.341Z,37.88
2022-11-26T03:57:56.203Z,38.30
2022-11-26T04:00:28.751Z,33.00
2022-11-26T04:02:59.730Z,31.27
2022-11-26T04:05:44.495Z,31.00
2022-11-26T04:10:42.944Z,28.08
2022-11-26T04:13:13.191Z,30.27
2022-11-26T04:15:47.689Z,33.53
2022-11-26T04:18:18.416Z,32.63
2022-11-26T04:21:12.104Z,32.40
2022-11-26T04:23:42.159Z,33.63
2022-11-26T04:26:14.813Z,34.67
2022-11-26T04:28:43.289Z,24.35
2022-11-26T04:31:13.313Z,32.65
2022-11-26T04:33:51.471Z,31.67
2022-11-26T04:36:23.806Z,31.02
2022-11-26T04:38:53.155Z,31.67
2022-11-26T04:41:25.110Z,32.13
2022-11-26T04:43:56.484Z,32.03
2022-11-26T04:46:28.663Z,32.70
2022-11-26T04:48:57.862Z,30.40
2022-11-26T04:51:29.335Z,31.27
2022-11-26T04:54:03.153Z,33.03
2022-11-26T04:56:33.931Z,34.47
2022-11-26T04:59:06.453Z,32.72
2022-11-26T05:01:37.578Z,34.72
2022-11-26T05:04:09.265Z,31.55
2022-11-26T05:06:39.174Z,31.25
2022-11-26T05:09:15.939Z,31.05
2022-11-26T05:11:44.411Z,33.80
2022-11-26T05:14:13.610Z,33.35
2022-11-26T05:16:43.584Z,33.78
2022-11-26T05:19:13.351Z,36.22
2022-11-26T05:21:43.847Z,45.75
2022-11-26T05:24:12.970Z,67.82
2022-11-26T05:26:41.922Z,62.90
2022-11-26T05:29:11.604Z,49.83
2022-11-26T05:31:44.684Z,40.75
2022-11-26T05:34:17.708Z,40.97
2022-11-26T05:36:49.164Z,37.85
2022-11-26T05:39:23.020Z,39.63
2022-11-26T05:41:54.770Z,35.80
2022-11-26T05:44:24.759Z,34.00
2022-11-26T05:49:37.967Z,34.38
2022-11-26T05:52:11.666Z,34.67
2022-11-26T05:54:47.126Z,33.35
2022-11-26T05:57:20.516Z,34.30
2022-11-26T05:59:54.570Z,33.65
2022-11-26T06:04:56.473Z,33.55
2022-11-26T06:07:25.849Z,34.50
2022-11-26T06:09:58.808Z,35.75
2022-11-26T06:12:26.970Z,36.25
2022-11-26T06:15:00.851Z,36.63
2022-11-26T06:17:31.337Z,38.20
2022-11-26T06:19:59.953Z,39.88
2022-11-26T06:22:31.196Z,37.83
2022-11-26T06:25:01.981Z,39.92
2022-11-26T06:27:36.813Z,38.05
2022-11-26T06:32:49.725Z,34.22
2022-11-26T06:35:20.436Z,36.40
2022-11-26T06:37:51.746Z,35.97
2022-11-26T06:40:23.285Z,37.03
2022-11-26T06:42:55.333Z,37.90
2022-11-26T06:45:27.028Z,38.08
2022-11-26T06:47:59.146Z,36.33
2022-11-26T06:50:31.973Z,38.42
2022-11-26T06:53:05.994Z,35.92
2022-11-26T06:55:37.188Z,37.60
2022-11-26T06:58:09.358Z,38.20
2022-11-26T07:00:40.282Z,38.08
2022-11-26T07:03:11.908Z,34.75
2022-11-26T07:05:42.999Z,33.25
2022-11-26T07:08:14.721Z,34.20
2022-11-26T07:10:49.051Z,36.15
2022-11-26T07:13:25.992Z,32.83
2022-11-26T07:15:55.454Z,33.38
2022-11-26T07:18:27.522Z,32.85
2022-11-26T07:21:00.155Z,32.17
2022-11-26T07:23:31.937Z,31.08
2022-11-26T07:26:04.616Z,33.05
2022-11-26T07:28:56.093Z,37.15
2022-11-26T07:31:27.682Z,35.38
2022-11-26T07:34:00.312Z,34.80
2022-11-26T07:36:30.841Z,35.60
2022-11-26T07:41:45.615Z,37.75
2022-11-26T07:44:15.900Z,37.53
2022-11-26T07:46:48.061Z,37.17
2022-11-26T07:49:22.619Z,38.50
2022-11-26T07:51:54.193Z,40.92
2022-11-26T07:57:15.688Z,37.40
2022-11-26T07:59:43.303Z,37.72
2022-11-26T08:02:18.211Z,35.47
2022-11-26T08:04:51.758Z,39.00
2022-11-26T08:07:26.126Z,36.95
2022-11-26T08:10:01.592Z,37.08
2022-11-26T08:12:38.142Z,38.60
2022-11-26T08:15:09.405Z,39.05
2022-11-26T08:17:41.812Z,39.13
2022-11-26T08:20:09.903Z,39.72
2022-11-26T08:22:40.498Z,40.20
2022-11-26T08:25:25.055Z,38.40
2022-11-26T08:27:53.079Z,37.78
2022-11-26T08:30:22.538Z,40.75
2022-11-26T08:32:54.242Z,42.45
2022-11-26T08:35:44.479Z,41.95
2022-11-26T08:38:15.434Z,43.17
2022-11-26T08:40:47.921Z,44.70
2022-11-26T08:43:18.178Z,44.78
2022-11-26T08:45:59.809Z,44.33
2022-11-26T08:48:32.018Z,42.38
2022-11-26T08:51:14.123Z,45.20
2022-11-26T08:54:00.996Z,42.05
2022-11-26T08:56:30.346Z,44.97
2022-11-26T08:59:05.377Z,47.45
2022-11-26T09:01:37.416Z,46.60
2022-11-26T09:04:09.033Z,34.88
2022-11-26T09:06:40.771Z,47.03
2022-11-26T09:09:22.382Z,47.38
2022-11-26T09:11:58.076Z,50.30
2022-11-26T09:17:04.780Z,46.00
2022-11-26T09:19:34.544Z,46.65
2022-11-26T09:22:06.822Z,45.70
2022-11-26T09:24:42.872Z,47.30
2022-11-26T09:27:15.526Z,48.20
2022-11-26T09:29:43.195Z,47.58
2022-11-26T09:32:24.493Z,50.13
2022-11-26T09:34:59.801Z,52.58
2022-11-26T09:37:36.183Z,73.10
2022-11-26T09:40:13.546Z,62.17
2022-11-26T09:43:15.965Z,50.65
2022-11-26T09:45:59.138Z,46.75
2022-11-26T09:48:34.741Z,46.38
2022-11-26T09:51:21.642Z,46.47
2022-11-26T09:53:57.836Z,46.03
2022-11-26T09:56:30.589Z,46.80
2022-11-26T09:59:11.180Z,50.88
2022-11-26T10:01:50.367Z,46.90
2022-11-26T10:04:24.722Z,47.03
2022-11-26T10:07:43.368Z,47.70
2022-11-26T10:10:26.511Z,43.70
2022-11-26T10:13:27.905Z,44.37
2022-11-26T10:16:21.719Z,46.20
2022-11-26T10:19:28.170Z,44.67
2022-11-26T10:22:07.217Z,41.53
2022-11-26T10:24:45.321Z,41.35
2022-11-26T10:27:27.679Z,43.03
2022-11-26T10:30:22.444Z,41.35
2022-11-26T10:32:56.918Z,36.25
2022-11-26T10:35:31.487Z,35.92
2022-11-26T10:38:02.324Z,36.40
2022-11-26T10:40:40.337Z,41.38
2022-11-26T10:46:11.310Z,38.47
2022-11-26T10:48:41.801Z,35.58
2022-11-26T10:51:34.068Z,35.42
2022-11-26T10:54:06.749Z,34.17
2022-11-26T10:57:01.641Z,34.70
2022-11-26T10:59:40.348Z,31.90
2022-11-26T11:02:35.917Z,32.20
2022-11-26T11:05:13.220Z,32.92
2022-11-26T11:07:45.050Z,25.73
2022-11-26T11:10:38.032Z,38.42
2022-11-26T11:13:21.445Z,36.42
2022-11-26T11:16:09.390Z,35.58
2022-11-26T11:18:50.428Z,36.30
2022-11-26T11:21:35.014Z,36.72
2022-11-26T11:24:29.633Z,33.30
2022-11-26T11:27:02.680Z,37.88
2022-11-26T11:29:30.624Z,37.05
2022-11-26T11:32:02.327Z,39.00
2022-11-26T11:34:45.708Z,37.95
2022-11-26T11:37:21.603Z,40.25
2022-11-26T11:40:17.452Z,39.45
2022-11-26T11:43:03.826Z,39.72
2022-11-26T11:45:43.283Z,41.83
2022-11-26T11:52:04.721Z,44.15
2022-11-26T11:55:21.062Z,41.63
2022-11-26T11:58:29.789Z,49.35
2022-11-26T12:01:40.229Z,42.92
2022-11-26T12:04:47.478Z,43.90
2022-11-26T12:07:42.301Z,45.85
2022-11-26T12:11:05.097Z,45.92
2022-11-26T12:14:04.983Z,51.22
2022-11-26T12:16:39.048Z,49.97
2022-11-26T12:19:41.785Z,54.42
2022-11-26T12:22:28.225Z,53.65
2022-11-26T12:25:20.117Z,52.72
2022-11-26T12:28:12.182Z,52.58
2022-11-26T12:31:36.435Z,53.63
2022-11-26T12:34:30.875Z,51.47
2022-11-26T12:37:42.709Z,47.47
2022-11-26T12:40:28.509Z,53.20
2022-11-26T12:43:10.419Z,48.63
2022-11-26T12:45:43.395Z,51.95
2022-11-26T12:48:33.110Z,53.85
2022-11-26T12:51:50.022Z,50.50
2022-11-26T12:54:41.542Z,51.17
2022-11-26T12:57:32.255Z,49.97
2022-11-26T13:00:08.423Z,49.00
2022-11-26T13:02:49.049Z,46.95
2022-11-26T13:05:41.390Z,44.40
2022-11-26T13:08:46.744Z,44.30
2022-11-26T13:12:02.050Z,41.92
2022-11-26T13:15:07.113Z,42.88
2022-11-26T13:17:54.937Z,38.08
2022-11-26T13:20:51.297Z,37.53
2022-11-26T13:23:53.546Z,34.78
2022-11-26T13:26:54.514Z,32.63
2022-11-26T13:29:54.894Z,27.83
2022-11-26T13:32:40.938Z,29.95
2022-11-26T13:35:33.852Z,28.40
2022-11-26T13:38:44.913Z,29.58
2022-11-26T13:41:52.346Z,27.88
2022-11-26T13:45:12.279Z,28.52
2022-11-26T13:48:18.284Z,28.63
2022-11-26T13:51:09.631Z,28.33
2022-11-26T13:53:46.619Z,29.33
2022-11-26T13:56:17.267Z,30.80
2022-11-26T13:59:11.495Z,29.92
2022-11-26T14:01:43.860Z,31.27
2022-11-26T14:04:34.990Z,30.33
2022-11-26T14:07:19.528Z,31.20
2022-11-26T14:10:07.707Z,29.25
2022-11-26T14:13:11.596Z,30.95
2022-11-26T14:15:52.523Z,30.77
2022-11-26T14:18:59.574Z,28.30
2022-11-26T14:21:32.468Z,28.52
2022-11-26T14:24:00.982Z,29.05
2022-11-26T14:26:47.528Z,29.33
2022-11-26T14:29:20.542Z,28.88
2022-11-26T14:31:56.242Z,32.00
2022-11-26T14:34:51.563Z,30.65
2022-11-26T14:40:09.819Z,32.17
2022-11-26T14:42:43.923Z,30.10
2022-11-26T14:45:22.298Z,31.25
2022-11-26T14:47:52.567Z,29.85
2022-11-26T14:50:24.010Z,31.02
2022-11-26T14:53:19.245Z,32.13
2022-11-26T14:55:53.006Z,32.92
2022-11-26T14:58:37.494Z,24.88
2022-11-26T15:01:18.731Z,31.70
2022-11-26T15:04:03.079Z,32.53
2022-11-26T15:06:35.509Z,33.15
2022-11-26T15:09:24.981Z,32.53
2022-11-26T15:12:18.333Z,29.90
2022-11-26T15:15:04.163Z,31.47
2022-11-26T15:17:34.146Z,34.70
2022-11-26T15:20:10.156Z,35.22
2022-11-26T15:22:55.899Z,33.92
2022-11-26T15:25:42.314Z,30.23
2022-11-26T15:28:25.365Z,29.00
2022-11-26T15:31:00.854Z,28.23
2022-11-26T15:33:33.149Z,29.05
2022-11-26T15:36:05.287Z,29.13
2022-11-26T15:38:38.277Z,28.38
2022-11-26T15:41:19.360Z,31.90
2022-11-26T15:43:58.924Z,34.10
2022-11-26T15:46:31.361Z,34.50
2022-11-26T15:49:07.859Z,34.03
2022-11-26T15:51:42.769Z,32.08
2022-11-26T15:54:49.480Z,30.45
2022-11-26T15:57:40.385Z,33.92
2022-11-26T16:00:44.178Z,32.53
2022-11-26T16:03:53.153Z,30.35
2022-11-26T16:06:35.397Z,30.33
2022-11-26T16:09:37.994Z,31.63
2022-11-26T16:12:30.313Z,32.42
2022-11-26T16:15:27.327Z,31.38
2022-11-26T16:17:58.241Z,30.83
2022-11-26T16:20:29.851Z,30.45
2022-11-26T16:23:28.233Z,30.35
2022-11-26T16:26:23.893Z,31.25
2022-11-26T16:28:51.966Z,49.50
2022-11-26T16:31:21.778Z,49.20
2022-11-26T16:34:09.596Z,40.22
2022-11-26T16:36:45.069Z,41.58
2022-11-26T16:39:18.417Z,38.97
2022-11-26T16:41:51.551Z,35.33
2022-11-26T16:44:20.169Z,35.63
2022-11-26T16:46:53.243Z,36.63
2022-11-26T16:49:22.968Z,33.95
2022-11-26T16:51:56.339Z,34.83
2022-11-26T16:57:20.017Z,44.80
2022-11-26T16:59:59.162Z,46.35
2022-11-26T17:02:31.032Z,50.42
2022-11-26T17:07:57.147Z,44.73
2022-11-26T17:10:31.557Z,43.65
2022-11-26T17:13:01.653Z,51.08
2022-11-26T17:15:29.825Z,52.08
2022-11-26T17:18:21.612Z,51.15
2022-11-26T17:20:56.840Z,48.78
2022-11-26T17:23:37.403Z,47.60
2022-11-26T17:26:22.747Z,43.22
2022-11-26T17:28:57.643Z,44.53
2022-11-26T17:31:28.230Z,42.65
2022-11-26T17:34:07.778Z,44.58
2022-11-26T17:36:42.734Z,42.25
2022-11-26T17:39:16.033Z,44.95
2022-11-26T17:41:44.990Z,40.65
2022-11-26T17:44:17.246Z,44.97
2022-11-26T17:47:15.655Z,67.67
2022-11-26T17:49:40.509Z,52.65
2022-11-26T17:52:15.589Z,53.10
2022-11-26T17:54:50.559Z,55.80
2022-11-26T17:57:26.306Z,56.05
2022-11-26T17:59:54.126Z,60.65
2022-11-26T18:02:24.019Z,54.28
2022-11-26T18:04:55.796Z,52.22
2022-11-26T18:07:30.791Z,58.17
2022-11-26T18:10:02.755Z,54.38
2022-11-26T18:12:31.675Z,52.75
2022-11-26T18:15:21.374Z,56.95
2022-11-26T18:17:54.975Z,59.97
2022-11-26T18:23:03.007Z,64.53
2022-11-26T18:25:36.692Z,71.65
2022-11-26T18:28:12.664Z,65.72
2022-11-26T18:30:44.427Z,72.13
2022-11-26T18:33:14.793Z,70.22
2022-11-26T18:35:46.755Z,74.75
2022-11-26T18:38:14.600Z,81.93
2022-11-26T18:40:45.509Z,78.25
2022-11-26T18:43:15.433Z,76.05
2022-11-26T18:45:46.031Z,79.50
2022-11-26T18:48:14.965Z,80.55
2022-11-26T18:50:46.799Z,81.38
2022-11-26T18:53:17.037Z,86.38
2022-11-26T18:55:47.309Z,83.13
2022-11-26T18:58:18.793Z,77.35
2022-11-26T19:01:01.265Z,73.90
2022-11-26T19:03:33.345Z,81.18
2022-11-26T19:06:07.555Z,92.22
2022-11-26T19:08:42.651Z,81.15
2022-11-26T19:11:27.703Z,84.40
2022-11-26T19:13:59.930Z,89.70
2022-11-26T19:16:51.659Z,76.57
2022-11-26T19:19:20.757Z,75.35
2022-11-26T19:21:56.640Z,70.60
2022-11-26T19:24:26.734Z,68.93
2022-11-26T19:26:54.806Z,70.13
2022-11-26T19:29:22.867Z,66.40
2022-11-26T19:31:51.009Z,68.38
2022-11-26T19:34:21.083Z,64.13
2022-11-26T19:36:58.205Z,59.10
2022-11-26T19:39:29.311Z,63.42
2022-11-26T19:42:00.270Z,70.90
2022-11-26T19:44:28.167Z,62.95
2022-11-26T19:47:01.118Z,64.72
2022-11-26T19:49:31.229Z,66.75
2022-11-26T19:52:05.143Z,70.90
2022-11-26T19:54:38.763Z,65.00
2022-11-26T19:57:15.211Z,68.32
2022-11-26T19:59:46.306Z,62.40
2022-11-26T20:02:16.976Z,61.88
2022-11-26T20:04:51.718Z,64.03
2022-11-26T20:07:24.424Z,62.28
2022-11-26T20:09:57.677Z,63.65
2022-11-26T20:15:15.782Z,61.90
2022-11-26T20:17:46.578Z,59.75
2022-11-26T20:20:19.730Z,64.30
2022-11-26T20:25:39.902Z,67.55
2022-11-26T20:28:09.538Z,75.05
2022-11-26T20:30:39.089Z,84.63
2022-11-26T20:33:09.387Z,107.40
2022-11-26T20:35:54.993Z,107.60
2022-11-26T20:38:28.220Z,102.03
2022-11-26T20:41:03.537Z,97.43
2022-11-26T20:43:33.966Z,87.43
2022-11-26T20:46:28.623Z,81.00
2022-11-26T20:49:00.235Z,78.95
2022-11-26T20:54:19.572Z,83.80
2022-11-26T20:56:49.406Z,73.65
2022-11-26T20:59:20.439Z,80.70
2022-11-26T21:01:49.997Z,74.68
2022-11-26T21:04:20.491Z,72.93
2022-11-26T21:06:49.042Z,71.18
2022-11-26T21:09:19.964Z,70.65
2022-11-26T21:11:53.081Z,70.18
2022-11-26T21:14:23.813Z,67.97
2022-11-26T21:16:56.241Z,65.45
2022-11-26T21:19:26.400Z,71.35
2022-11-26T21:22:01.240Z,71.47
2022-11-26T21:27:15.871Z,69.03
2022-11-26T21:29:52.431Z,67.65
2022-11-26T21:32:24.246Z,73.05
2022-11-26T21:34:52.872Z,73.28
2022-11-26T21:37:25.505Z,69.85
2022-11-26T21:39:54.210Z,72.32
2022-11-26T21:42:24.073Z,66.63
2022-11-26T21:44:54.624Z,70.72
2022-11-26T21:47:25.315Z,72.10
2022-11-26T21:49:55.436Z,69.90
2022-11-26T21:52:28.637Z,74.68
2022-11-26T21:55:04.805Z,70.07
2022-11-26T21:57:35.520Z,72.03
2022-11-26T22:00:08.666Z,76.47
2022-11-26T22:02:44.284Z,84.75
2022-11-26T22:05:18.281Z,72.15
2022-11-26T22:07:52.486Z,68.15
2022-11-26T22:10:22.366Z,70.45
2022-11-26T22:12:54.234Z,70.35
2022-11-26T22:15:31.131Z,71.87
2022-11-26T22:18:02.854Z,73.22
2022-11-26T22:20:36.545Z,82.35
2022-11-26T22:23:10.918Z,93.20
2022-11-26T22:25:40.998Z,92.05
2022-11-26T22:28:14.899Z,102.43
2022-11-26T22:30:53.015Z,80.03
2022-11-26T22:33:23.798Z,74.65
2022-11-26T22:35:58.702Z,76.30
2022-11-26T22:38:30.024Z,77.72
2022-11-26T22:41:08.038Z,71.95
2022-11-26T22:43:38.851Z,75.13
2022-11-26T22:46:16.065Z,74.00
2022-11-26T22:48:52.471Z,71.53
2022-11-26T22:51:22.718Z,74.28
2022-11-26T22:54:01.554Z,76.07
2022-11-26T22:56:52.555Z,70.85
2022-11-26T22:59:21.314Z,71.30
2022-11-26T23:01:57.295Z,68.68
2022-11-26T23:04:29.658Z,67.70
2022-11-26T23:07:01.209Z,66.93
2022-11-26T23:09:28.926Z,70.70
2022-11-26T23:11:57.873Z,69.43
2022-11-26T23:14:26.918Z,64.57
2022-11-26T23:17:07.039Z,66.20
2022-11-26T23:19:39.380Z,75.68
2022-11-26T23:22:34.925Z,67.72
2022-11-26T23:25:07.235Z,70.03
2022-11-26T23:27:43.110Z,67.28
2022-11-26T23:30:16.343Z,64.20
2022-11-26T23:32:47.741Z,68.35
2022-11-26T23:35:17.525Z,66.47
2022-11-26T23:37:49.153Z,64.97
2022-11-26T23:40:21.719Z,70.05
2022-11-26T23:42:49.570Z,65.57
2022-11-26T23:45:21.605Z,67.38
2022-11-26T23:47:56.409Z,66.30
2022-11-26T23:50:27.447Z,63.63
2022-11-26T23:52:58.659Z,67.97
2022-11-26T23:55:30.445Z,68.57
2022-11-26T23:58:00.301Z,65.55
